TUL - Tulsa Intl

Pirep is a free, collaborative database of all public and private airports located within the United States. All pilots are welcome to contribute, edit, and improve any airport they have local knowledge about, no registration required.
Uploaded photos will be licensed under a CC BY-SA 4.0 license. Please only upload photos you have the rights to use.
Tags
Public
Food
Car Rental
Museum
METAR / TAF
Edit Tags
Camping
Lodging
Bicycles
Swimming
Golfing
Fishing
Hot Springs
Flying Clubs
Airpark
Upcoming Events
No upcoming events. Is anything happening here soon?
*
*
*

Where exactly on/near the airport is this event taking place?

Is there a webpage with more information for this event?

Who should be contacted for more information?

What is this event all about?

Repeat every
Description
Last updated: 2023-06-15 23:32:53 CDT
Transient Parking
Fuel Location
Landing & Tie-down Fees
Crew Car Availability
Flying Clubs
WiFi Access
Airport Statistics
Location: Tulsa, OK
Elevation: 677ft
Sectional: Kansas City
Activation date: Aug 1942
Fuel: 100LL, A (prices)
Runway 18L/36R: 10,000ft
Runway 08/26: 7,376ft
Runway 18R/36L: 6,101ft
Access: Open to the public
Current Weather — VFR
  • Weather data is strictly informational and not for flight planning purposes.
  • METAR
    2024-05-29 11:53:00 CDT
    Ceiling Wind Temperature Dewpoint Weather Visbility
    20,000ft 120° @ 5kt 77°F 66°F N/A 10SM
    Clouds: Few @ 3,200ft, Scattered @ 12,000ft, Overcast @ 20,000ft
    Raw: KTUL 291653Z 12005KT 10SM FEW032TCU SCT120 OVC200 25/19 A3013 RMK AO2 SLP195 TCU E T02500189
  • TAF
    2024-05-29 13:00:00 CDT – 2024-05-29 20:00:00 CDT
    Ceiling Wind Weather Visbility
    12,000ft 140° @ 6kt Showers in vicinity 6SM
    Clouds: Scattered @ 6,000ft, Broken @ 12,000ft
    Raw: KTUL 291725Z 2918/3018 14006KT P6SM VCSH SCT060 BKN120 FM300100 12005KT P6SM SCT035 BKN120 FM301400 14006KT P6SM SCT040 BKN100 PROB30 3014/3018 4SM TSRA BR BKN035CB
  • TAF
    2024-05-29 20:00:00 CDT – 2024-05-30 09:00:00 CDT
    Ceiling Wind Weather Visbility
    12,000ft 120° @ 5kt N/A 6SM
    Clouds: Scattered @ 3,500ft, Broken @ 12,000ft
    Raw: KTUL 291725Z 2918/3018 14006KT P6SM VCSH SCT060 BKN120 FM300100 12005KT P6SM SCT035 BKN120 FM301400 14006KT P6SM SCT040 BKN100 PROB30 3014/3018 4SM TSRA BR BKN035CB
  • TAF
    2024-05-30 09:00:00 CDT – 2024-05-30 13:00:00 CDT
    Ceiling Wind Weather Visbility
    10,000ft 140° @ 6kt N/A 6SM
    Clouds: Scattered @ 4,000ft, Broken @ 10,000ft
    Raw: KTUL 291725Z 2918/3018 14006KT P6SM VCSH SCT060 BKN120 FM300100 12005KT P6SM SCT035 BKN120 FM301400 14006KT P6SM SCT040 BKN100 PROB30 3014/3018 4SM TSRA BR BKN035CB
  • TAF
    2024-05-30 09:00:00 CDT – 2024-05-30 13:00:00 CDT
    Ceiling Wind Weather Visbility
    3,500ft ° @ kt Thunderstorm rain, mist 4SM
    Clouds: Broken @ 3,500ft
    Raw: KTUL 291725Z 2918/3018 14006KT P6SM VCSH SCT060 BKN120 FM300100 12005KT P6SM SCT035 BKN120 FM301400 14006KT P6SM SCT040 BKN100 PROB30 3014/3018 4SM TSRA BR BKN035CB
Click/tap to add an annotation marker to the map
Airport Webcams
No webcams added yet.
Direct links to live image URLs will be displayed inline on this page. URLs to separate webpages will be linked to.
URL:
Direct links to live image URLs will be displayed inline on this page. URLs to separate webpages will be linked to.
URL:
Remarks
  • Ctn: 4000 ft blacktop track 1.5 nm e rwy 26; do not mistake for rwy.
  • Wt rstrd areas: twy jj s-35; twy m2 s-81/d-140/dt-186; twy hh s-55/d-60; twy l north of rwy 08/26 s-93/d-140/dt 209; twy l btn twy c & twy l2 s-120/d-250/dt 372; twy l2 s-70/d-100/dt-166.
  • Noise abatement all rwys: climb to 3000 ft asap aft tkof.
  • Ireg wind pat aer 18r.
  • Txl la, nn & qq not vsb fm atct.
Comments
Leave a comment What was your experience like at this airport?